Time;durP1;ratioP1;P1;durP2;ratioP2;P2;SDS_P1;SDS_P2;PMS_P1;PMS_P2;Temp;Humidity;BMP_temperature;BMP_pressure;BME280_temperature;BME280_humidity;BME280_pressure;Samples;Min_cycle;Max_cycle;Signal;HPM_P1;HPM_P2
2023/05/02 00:01:50;;;;;;;16.27;8.25;;;10.10;99.90;;;;;;4874744;29;20066;-94
2023/05/02 00:04:16;;;;;;;24.25;9.02;;;10.10;99.90;;;;;;4875372;29;20033;-96
2023/05/02 00:06:41;;;;;;;19.65;8.68;;;10.10;99.90;;;;;;4876291;29;20028;-94
2023/05/02 00:09:07;;;;;;;18.10;9.40;;;10.10;99.90;;;;;;4869974;29;20033;-95
2023/05/02 00:11:34;;;;;;;21.67;9.25;;;10.10;99.90;;;;;;4892805;29;20025;-92
2023/05/02 00:14:00;;;;;;;18.90;8.32;;;10.10;99.90;;;;;;4876535;29;20541;-94
2023/05/02 00:16:25;;;;;;;19.30;9.90;;;10.10;99.90;;;;;;4874467;29;20029;-94
2023/05/02 00:18:51;;;;;;;23.33;10.50;;;10.10;99.90;;;;;;4874544;29;20054;-93
2023/05/02 00:21:17;;;;;;;23.67;9.75;;;10.10;99.90;;;;;;4877235;29;20032;-95
2023/05/02 00:23:42;;;;;;;19.88;10.20;;;10.00;99.90;;;;;;4874905;29;20088;-95
2023/05/02 00:26:12;;;;;;;25.00;10.70;;;10.00;99.90;;;;;;4872605;29;20045;-93
2023/05/02 00:28:39;;;;;;;22.00;11.75;;;9.90;99.90;;;;;;4877905;29;20044;-94
2023/05/02 00:31:04;;;;;;;25.35;11.15;;;9.90;99.90;;;;;;4879693;29;20017;-96
2023/05/02 00:33:30;;;;;;;24.08;11.45;;;9.90;99.90;;;;;;4878800;29;20037;-95
2023/05/02 00:35:56;;;;;;;24.52;11.00;;;9.80;99.90;;;;;;4878814;29;20045;-95
2023/05/02 00:38:21;;;;;;;24.58;11.15;;;9.80;99.90;;;;;;4881888;29;20028;-93
2023/05/02 00:40:52;;;;;;;26.00;10.65;;;9.80;99.90;;;;;;4876958;29;20137;-92
2023/05/02 00:43:18;;;;;;;19.92;11.45;;;9.80;99.90;;;;;;4873094;29;20053;-93
2023/05/02 00:45:45;;;;;;;27.92;10.80;;;9.80;99.90;;;;;;4869486;29;20056;-95
2023/05/02 00:48:11;;;;;;;17.23;9.52;;;9.80;99.90;;;;;;4868994;29;20025;-95
2023/05/02 00:50:39;;;;;;;15.60;7.95;;;9.80;99.90;;;;;;4869518;29;20462;-95
2023/05/02 00:53:06;;;;;;;22.10;7.50;;;9.80;99.90;;;;;;4885806;29;20103;-93
2023/05/02 00:55:33;;;;;;;18.13;7.10;;;9.80;99.90;;;;;;4867898;29;20054;-94
2023/05/02 00:58:00;;;;;;;17.52;6.55;;;9.70;99.90;;;;;;4870333;29;20021;-94
2023/05/02 01:00:35;;;;;;;12.32;5.10;;;9.70;99.90;;;;;;4870262;29;20040;-93
2023/05/02 01:03:16;;;;;;;10.85;6.32;;;9.80;99.90;;;;;;4890304;29;20056;-94
2023/05/02 01:06:17;;;;;;;12.23;4.65;;;9.70;99.90;;;;;;4869256;29;20518;-95
2023/05/02 01:08:54;;;;;;;11.40;3.95;;;9.70;99.90;;;;;;4885526;29;20029;-93
2023/05/02 01:11:43;;;;;;;16.98;4.43;;;9.70;99.90;;;;;;4883958;29;20056;-93
2023/05/02 01:14:12;;;;;;;14.98;4.72;;;9.70;99.90;;;;;;4870913;29;20036;-94
2023/05/02 01:16:40;;;;;;;15.85;4.60;;;9.70;99.90;;;;;;4866258;29;20423;-94
2023/05/02 01:19:12;;;;;;;10.68;3.67;;;9.70;99.90;;;;;;4866619;29;20025;-95
2023/05/02 01:21:39;;;;;;;11.25;3.95;;;9.70;99.90;;;;;;4864760;29;20029;-95
2023/05/02 01:24:23;;;;;;;11.18;4.18;;;9.70;99.90;;;;;;4866314;29;20062;-95
2023/05/02 01:27:23;;;;;;;10.65;4.13;;;9.60;99.90;;;;;;4864979;29;20029;-93
2023/05/02 01:29:50;;;;;;;8.15;4.10;;;9.60;99.90;;;;;;4865242;29;20109;-95
2023/05/02 01:32:19;;;;;;;11.52;4.22;;;9.50;99.90;;;;;;4864251;29;20024;-94
2023/05/02 01:34:47;;;;;;;10.07;4.43;;;9.50;99.90;;;;;;4864696;29;20021;-96
2023/05/02 01:37:16;;;;;;;11.60;5.10;;;9.50;99.90;;;;;;4861342;29;20040;-94
2023/05/02 01:39:42;;;;;;;10.98;3.78;;;9.40;99.90;;;;;;4869822;29;20040;-93
2023/05/02 01:42:12;;;;;;;14.68;4.15;;;9.50;99.90;;;;;;4886993;29;20040;-94
2023/05/02 01:44:39;;;;;;;14.32;4.18;;;9.40;99.90;;;;;;4872457;29;20065;-94
2023/05/02 01:47:06;;;;;;;14.02;4.32;;;9.40;99.90;;;;;;4875263;29;20274;-94
2023/05/02 01:49:34;;;;;;;16.02;4.55;;;9.40;99.90;;;;;;4876049;29;20029;-92
2023/05/02 01:52:04;;;;;;;12.10;4.90;;;9.30;99.90;;;;;;4874265;29;20025;-94
2023/05/02 01:54:32;;;;;;;17.60;5.18;;;9.30;99.90;;;;;;4867826;29;20033;-95
2023/05/02 01:57:01;;;;;;;17.00;5.40;;;9.30;99.90;;;;;;4868096;29;20037;-93
2023/05/02 01:59:28;;;;;;;17.63;5.47;;;9.30;99.90;;;;;;4881750;29;20041;-96
2023/05/02 02:01:56;;;;;;;9.63;5.40;;;9.30;99.90;;;;;;4870669;29;20475;-94
2023/05/02 02:04:24;;;;;;;9.45;4.80;;;9.30;99.90;;;;;;4873054;29;20041;-94
2023/05/02 02:06:59;;;;;;;12.80;4.10;;;9.30;99.90;;;;;;4870448;29;20085;-94
2023/05/02 02:09:25;;;;;;;20.08;4.60;;;9.20;99.90;;;;;;4883446;29;20029;-93
2023/05/02 02:12:15;;;;;;;12.18;4.65;;;9.20;99.90;;;;;;4887330;29;20022;-90
2023/05/02 02:14:49;;;;;;;11.23;3.78;;;9.10;99.90;;;;;;4890188;29;20041;-91
2023/05/02 02:17:25;;;;;;;17.08;4.38;;;9.10;99.90;;;;;;4883680;29;20491;-94
2023/05/02 02:19:54;;;;;;;9.45;4.18;;;9.00;99.90;;;;;;4875359;29;20022;-95
2023/05/02 02:22:22;;;;;;;8.75;4.07;;;9.00;99.90;;;;;;4875590;29;20096;-93
2023/05/02 02:24:49;;;;;;;10.88;5.00;;;9.00;99.90;;;;;;4884275;29;20032;-93
2023/05/02 02:27:14;;;;;;;11.50;4.82;;;9.00;99.90;;;;;;4875964;29;20086;-94
2023/05/02 02:29:40;;;;;;;17.25;4.93;;;8.90;99.90;;;;;;4872827;29;20028;-94
2023/05/02 02:32:05;;;;;;;18.55;5.45;;;8.90;99.90;;;;;;4886827;29;20562;-94
2023/05/02 02:34:31;;;;;;;12.63;5.75;;;8.90;99.90;;;;;;4872224;29;20049;-94
2023/05/02 02:37:03;;;;;;;19.08;5.70;;;8.90;99.90;;;;;;4867915;29;20041;-94
2023/05/02 02:40:08;;;;;;;23.30;6.55;;;8.90;99.90;;;;;;4871683;29;20033;-94
2023/05/02 02:42:41;;;;;;;14.43;5.30;;;8.90;99.90;;;;;;4869052;29;20064;-93
2023/05/02 02:45:22;;;;;;;21.98;5.85;;;8.80;99.90;;;;;;4872017;29;20506;-94
2023/05/02 02:48:09;;;;;;;16.77;5.78;;;8.70;99.90;;;;;;4887571;29;20044;-92
2023/05/02 02:50:46;;;;;;;16.17;5.65;;;8.70;99.90;;;;;;4866731;29;20160;-95
2023/05/02 02:53:18;;;;;;;14.30;6.72;;;8.70;99.90;;;;;;4880301;29;20048;-92
2023/05/02 02:55:58;;;;;;;14.98;5.03;;;8.70;99.90;;;;;;4878806;29;20033;-95
2023/05/02 02:58:30;;;;;;;15.07;4.63;;;8.70;99.90;;;;;;4870972;29;20029;-95
2023/05/02 03:00:57;;;;;;;15.60;4.55;;;8.70;99.90;;;;;;4884410;29;20025;-95
2023/05/02 03:03:27;;;;;;;14.82;4.47;;;8.70;99.90;;;;;;4885618;29;20033;-92
2023/05/02 03:05:55;;;;;;;21.50;5.03;;;8.80;99.90;;;;;;4866910;29;20031;-94
2023/05/02 03:08:21;;;;;;;17.65;5.63;;;8.70;99.90;;;;;;4868545;29;20036;-92
2023/05/02 03:10:47;;;;;;;18.80;4.95;;;8.70;99.90;;;;;;4867679;29;20029;-95
2023/05/02 03:13:13;;;;;;;14.35;5.15;;;8.70;99.90;;;;;;4867779;29;20021;-94
2023/05/02 03:15:50;;;;;;;15.82;5.63;;;8.70;99.90;;;;;;4869799;29;20061;-93
2023/05/02 03:18:17;;;;;;;22.17;5.55;;;8.70;99.90;;;;;;4878672;29;20029;-93
2023/05/02 03:20:42;;;;;;;13.25;4.88;;;8.60;99.90;;;;;;4882703;29;20029;-93
2023/05/02 03:23:08;;;;;;;14.45;5.85;;;8.60;99.90;;;;;;4881615;29;20037;-91
2023/05/02 03:25:34;;;;;;;17.80;5.70;;;8.60;99.90;;;;;;4882463;29;20021;-92
2023/05/02 03:27:59;;;;;;;18.30;4.25;;;8.60;99.90;;;;;;4896389;29;20037;-92
2023/05/02 03:30:25;;;;;;;23.67;4.57;;;8.60;99.90;;;;;;4880615;29;20096;-92
2023/05/02 03:32:51;;;;;;;17.13;3.83;;;8.60;99.90;;;;;;4870954;29;20029;-94
2023/05/02 03:35:17;;;;;;;18.42;5.15;;;8.60;99.90;;;;;;4870333;29;20052;-95
2023/05/02 03:37:43;;;;;;;17.48;5.22;;;8.50;99.90;;;;;;4868858;29;20040;-94
2023/05/02 03:40:09;;;;;;;14.10;4.20;;;8.50;99.90;;;;;;4867202;29;20025;-94
2023/05/02 03:42:40;;;;;;;23.98;6.13;;;8.50;99.90;;;;;;4866175;29;20033;-94
2023/05/02 03:45:07;;;;;;;13.20;4.43;;;8.60;99.90;;;;;;4882842;29;20139;-94
2023/05/02 03:47:33;;;;;;;15.98;4.88;;;8.60;99.90;;;;;;4887260;29;20290;-94
2023/05/02 03:50:02;;;;;;;11.38;4.18;;;8.60;99.90;;;;;;4880407;29;20033;-92
2023/05/02 03:52:28;;;;;;;12.05;3.92;;;8.60;99.90;;;;;;4885576;29;20495;-92
2023/05/02 03:54:53;;;;;;;16.38;4.35;;;8.60;99.90;;;;;;4867148;29;20049;-95
2023/05/02 03:57:20;;;;;;;19.40;4.60;;;8.60;99.90;;;;;;4866378;29;20021;-94
2023/05/02 03:59:46;;;;;;;17.25;4.43;;;8.70;99.90;;;;;;4865938;29;20032;-94
2023/05/02 04:02:12;;;;;;;14.05;4.80;;;8.70;99.90;;;;;;4865240;29;20021;-95
2023/05/02 04:04:39;;;;;;;20.33;5.22;;;8.70;99.90;;;;;;4865565;29;20033;-94
2023/05/02 04:07:06;;;;;;;13.85;4.63;;;8.70;99.90;;;;;;4865537;29;20082;-95
2023/05/02 04:09:32;;;;;;;12.70;4.88;;;8.70;99.90;;;;;;4882453;29;20063;-95
2023/05/02 04:11:58;;;;;;;15.18;5.60;;;8.70;99.90;;;;;;4866483;29;20045;-95
2023/05/02 04:14:24;;;;;;;18.67;6.82;;;8.60;99.90;;;;;;4866071;29;20040;-94
2023/05/02 04:16:52;;;;;;;16.67;6.45;;;8.60;99.90;;;;;;4880907;29;20028;-94
2023/05/02 04:19:18;;;;;;;18.98;7.47;;;8.60;99.90;;;;;;4865719;29;20506;-95
2023/05/02 04:21:44;;;;;;;14.90;7.95;;;8.70;99.90;;;;;;4864878;29;20033;-94
2023/05/02 04:24:10;;;;;;;21.60;8.40;;;8.70;99.90;;;;;;4864364;29;20060;-94
2023/05/02 04:26:36;;;;;;;22.58;11.75;;;8.60;99.90;;;;;;4867112;29;20506;-93
2023/05/02 04:29:03;;;;;;;27.02;14.00;;;8.60;99.90;;;;;;4867177;29;20025;-94
2023/05/02 04:31:30;;;;;;;24.13;11.50;;;8.60;99.90;;;;;;4864921;29;20029;-95
2023/05/02 04:33:56;;;;;;;29.48;14.52;;;8.60;99.90;;;;;;4864113;29;20033;-93
2023/05/02 04:36:21;;;;;;;32.28;13.98;;;8.60;99.90;;;;;;4864603;29;20052;-94
2023/05/02 04:38:47;;;;;;;34.33;13.50;;;8.60;99.90;;;;;;4865863;29;20029;-96
2023/05/02 04:41:14;;;;;;;30.55;14.23;;;8.60;99.90;;;;;;4865597;29;20031;-95
2023/05/02 04:43:40;;;;;;;27.65;13.27;;;8.50;99.90;;;;;;4864618;29;20045;-94
2023/05/02 04:46:05;;;;;;;22.63;11.30;;;8.50;99.90;;;;;;4864647;29;20025;-94
2023/05/02 04:48:32;;;;;;;28.17;12.27;;;8.50;99.90;;;;;;4864451;29;20447;-94
2023/05/02 04:50:58;;;;;;;27.27;12.10;;;8.50;99.90;;;;;;4866986;29;20088;-95
2023/05/02 04:53:24;;;;;;;35.65;13.88;;;8.50;99.90;;;;;;4864727;29;20115;-93
2023/05/02 04:55:49;;;;;;;31.90;13.40;;;8.50;99.90;;;;;;4865030;29;20059;-95
2023/05/02 04:58:15;;;;;;;30.83;14.48;;;8.50;99.90;;;;;;4864353;29;20088;-94
2023/05/02 05:00:41;;;;;;;34.42;15.50;;;8.50;99.90;;;;;;4864182;29;20031;-95
2023/05/02 05:03:06;;;;;;;29.10;15.13;;;8.50;99.90;;;;;;4866038;29;20035;-95
2023/05/02 05:05:32;;;;;;;29.00;14.75;;;8.60;99.90;;;;;;4865441;29;20070;-95
2023/05/02 05:07:58;;;;;;;39.10;15.77;;;8.60;99.90;;;;;;4865334;29;20081;-95
2023/05/02 05:10:24;;;;;;;33.40;14.32;;;8.50;99.90;;;;;;4872684;29;20033;-93
2023/05/02 05:12:49;;;;;;;34.65;13.52;;;8.50;99.90;;;;;;4896009;29;20053;-93
2023/05/02 05:15:16;;;;;;;32.45;13.88;;;8.50;99.90;;;;;;4887925;29;20033;-93
2023/05/02 05:17:41;;;;;;;33.75;13.40;;;8.40;99.90;;;;;;4875099;29;20021;-93
2023/05/02 05:20:10;;;;;;;27.00;11.30;;;8.40;99.90;;;;;;4874668;29;20036;-94
2023/05/02 05:22:42;;;;;;;29.58;11.65;;;8.40;99.90;;;;;;4884955;29;20075;-95
2023/05/02 05:25:08;;;;;;;31.27;11.20;;;8.40;99.90;;;;;;4869287;29;20052;-94
2023/05/02 05:27:35;;;;;;;32.67;10.38;;;8.40;99.90;;;;;;4867216;29;20054;-94
2023/05/02 05:30:01;;;;;;;26.77;9.05;;;8.40;99.90;;;;;;4879819;29;20109;-94
2023/05/02 05:32:26;;;;;;;28.27;9.63;;;8.40;99.90;;;;;;4864607;29;20064;-94
2023/05/02 05:34:52;;;;;;;26.25;9.73;;;8.50;99.90;;;;;;4864004;29;20387;-93
2023/05/02 05:37:19;;;;;;;18.95;9.75;;;8.50;99.90;;;;;;4864957;29;20088;-94
2023/05/02 05:39:45;;;;;;;32.08;8.77;;;8.50;99.90;;;;;;4867514;29;20040;-94
2023/05/02 05:42:11;;;;;;;27.98;9.05;;;8.50;99.90;;;;;;4872823;29;20057;-90
2023/05/02 05:44:37;;;;;;;22.33;9.82;;;8.50;99.90;;;;;;4886331;29;20026;-92
2023/05/02 05:47:03;;;;;;;24.80;9.98;;;8.50;99.90;;;;;;4883884;29;20029;-95
2023/05/02 05:49:29;;;;;;;23.83;10.10;;;8.50;99.90;;;;;;4874729;29;20538;-96
2023/05/02 05:51:54;;;;;;;21.75;9.65;;;8.50;99.90;;;;;;4869482;29;20017;-95
2023/05/02 05:54:20;;;;;;;22.67;9.98;;;8.50;99.90;;;;;;4866484;29;20060;-93
2023/05/02 05:56:46;;;;;;;29.50;10.98;;;8.50;99.90;;;;;;4867223;29;20032;-92
2023/05/02 05:59:12;;;;;;;20.13;10.60;;;8.60;99.90;;;;;;4866464;29;20036;-95
2023/05/02 06:01:37;;;;;;;27.10;10.40;;;8.60;99.90;;;;;;4866555;29;20021;-95
2023/05/02 06:04:04;;;;;;;23.83;9.77;;;8.70;99.90;;;;;;4872762;29;20041;-93
2023/05/02 06:06:33;;;;;;;20.50;10.13;;;8.80;99.90;;;;;;4877575;29;20021;-92
2023/05/02 06:08:59;;;;;;;32.47;10.40;;;8.80;99.90;;;;;;4877690;29;20056;-95
2023/05/02 06:11:25;;;;;;;24.52;8.20;;;8.80;99.90;;;;;;4867603;29;20025;-95
2023/05/02 06:13:51;;;;;;;20.58;6.88;;;8.80;99.90;;;;;;4866361;29;20040;-96
2023/05/02 06:16:17;;;;;;;17.20;6.18;;;8.80;99.90;;;;;;4866247;29;20025;-95
2023/05/02 06:18:44;;;;;;;17.98;4.68;;;8.80;99.90;;;;;;4866412;29;20113;-93
2023/05/02 06:21:09;;;;;;;20.10;4.35;;;8.80;99.90;;;;;;4865677;29;20025;-93
2023/05/02 06:23:35;;;;;;;17.70;5.50;;;8.90;99.90;;;;;;4866149;29;20044;-94
2023/05/02 06:26:02;;;;;;;11.10;3.65;;;8.90;99.90;;;;;;4866416;29;20523;-96
2023/05/02 06:28:29;;;;;;;16.52;4.50;;;8.90;99.90;;;;;;4868212;29;20033;-94
2023/05/02 06:31:03;;;;;;;10.23;3.25;;;8.90;99.90;;;;;;4863213;29;20033;-95
2023/05/02 06:33:29;;;;;;;9.45;3.10;;;8.90;99.90;;;;;;4866084;29;20065;-94
2023/05/02 06:35:55;;;;;;;10.52;3.30;;;9.00;99.90;;;;;;4865305;29;20045;-94
2023/05/02 06:38:21;;;;;;;10.05;2.30;;;9.00;99.90;;;;;;4869497;29;20454;-94
2023/05/02 06:40:48;;;;;;;13.77;4.38;;;9.00;99.90;;;;;;4868153;29;20045;-92
2023/05/02 06:43:14;;;;;;;17.23;3.55;;;9.10;99.90;;;;;;4865139;29;20021;-93
2023/05/02 06:45:40;;;;;;;11.45;4.13;;;9.10;99.90;;;;;;4864866;29;20021;-92
2023/05/02 06:48:06;;;;;;;9.43;3.42;;;9.10;99.90;;;;;;4865449;29;20033;-92
2023/05/02 06:50:32;;;;;;;9.43;2.90;;;9.10;99.90;;;;;;4866156;29;20487;-93
2023/05/02 06:52:58;;;;;;;13.43;2.95;;;9.10;99.90;;;;;;4866586;29;20031;-93
2023/05/02 06:55:24;;;;;;;11.93;3.13;;;9.20;99.90;;;;;;4870750;29;20037;-93
2023/05/02 06:57:50;;;;;;;11.40;3.20;;;9.20;99.90;;;;;;4872164;29;20032;-93
2023/05/02 07:00:18;;;;;;;11.85;3.50;;;9.20;99.90;;;;;;4886031;29;20044;-94
2023/05/02 07:02:48;;;;;;;13.43;3.65;;;9.20;99.90;;;;;;4866343;29;20104;-92
2023/05/02 07:05:16;;;;;;;18.17;5.15;;;9.30;99.90;;;;;;4865744;29;20044;-94
2023/05/02 07:07:43;;;;;;;20.15;5.63;;;9.30;99.90;;;;;;4881200;29;20033;-95
2023/05/02 07:10:10;;;;;;;10.77;3.20;;;9.40;99.90;;;;;;4866939;29;20040;-94
2023/05/02 07:12:35;;;;;;;9.10;3.58;;;9.40;99.90;;;;;;4864946;29;20029;-93
2023/05/02 07:15:01;;;;;;;17.05;3.35;;;9.50;99.90;;;;;;4865490;29;20057;-95
2023/05/02 07:17:27;;;;;;;14.32;3.53;;;9.50;99.90;;;;;;4865360;29;20035;-95
2023/05/02 07:19:53;;;;;;;14.73;3.78;;;9.60;99.90;;;;;;4864235;29;20059;-94
2023/05/02 07:22:19;;;;;;;15.75;3.17;;;9.60;99.90;;;;;;4863921;29;20040;-93
2023/05/02 07:24:45;;;;;;;9.45;3.47;;;9.70;99.90;;;;;;4877889;29;20518;-92
2023/05/02 07:27:11;;;;;;;11.05;3.95;;;9.70;99.90;;;;;;4865452;29;20029;-94
2023/05/02 07:29:38;;;;;;;14.85;4.47;;;9.80;99.90;;;;;;4865954;29;20033;-92
2023/05/02 07:32:04;;;;;;;12.00;3.70;;;9.90;99.90;;;;;;4865233;29;20108;-92
2023/05/02 07:34:30;;;;;;;10.65;4.18;;;9.90;99.90;;;;;;4865365;29;20029;-92
2023/05/02 07:36:57;;;;;;;16.02;4.05;;;10.00;99.90;;;;;;4862378;29;20069;-93
2023/05/02 07:39:24;;;;;;;9.98;3.67;;;10.10;99.90;;;;;;4847789;29;20022;-93
2023/05/02 07:41:54;;;;;;;15.50;4.25;;;10.20;99.90;;;;;;4862375;29;20030;-93
2023/05/02 07:44:20;;;;;;;18.58;4.00;;;10.20;99.90;;;;;;4848198;29;20079;-93
2023/05/02 07:46:48;;;;;;;10.57;4.25;;;10.20;99.90;;;;;;4869676;29;20096;-94
2023/05/02 07:49:13;;;;;;;15.38;4.18;;;10.20;99.90;;;;;;4850273;29;20033;-94
2023/05/02 07:51:39;;;;;;;20.27;4.82;;;10.20;99.90;;;;;;4862193;29;20506;-94
2023/05/02 07:54:18;;;;;;;12.80;3.95;;;10.20;99.90;;;;;;4845016;29;20443;-95
2023/05/02 07:56:44;;;;;;;11.00;3.47;;;10.10;99.90;;;;;;4861304;29;20026;-94
2023/05/02 07:59:10;;;;;;;11.02;3.63;;;10.10;99.90;;;;;;4845417;29;20029;-94
2023/05/02 08:01:36;;;;;;;16.20;4.65;;;10.00;99.90;;;;;;4845520;29;20030;-94
2023/05/02 08:04:03;;;;;;;7.60;3.80;;;10.00;99.90;;;;;;4847632;29;20139;-95
2023/05/02 08:06:29;;;;;;;8.68;4.53;;;9.90;99.90;;;;;;4845069;29;20063;-94
2023/05/02 08:08:55;;;;;;;15.45;4.13;;;9.90;99.90;;;;;;4844938;29;20029;-95
2023/05/02 08:11:24;;;;;;;11.98;3.63;;;9.90;99.90;;;;;;4864126;29;20097;-93
2023/05/02 08:13:50;;;;;;;15.18;3.65;;;9.90;99.90;;;;;;4846001;29;20503;-93
2023/05/02 08:16:16;;;;;;;14.13;4.40;;;9.90;99.90;;;;;;4845389;29;20037;-94
2023/05/02 08:18:41;;;;;;;13.43;4.47;;;9.90;99.90;;;;;;4847672;29;20033;-94
2023/05/02 08:21:07;;;;;;;13.35;4.22;;;9.90;99.90;;;;;;4847088;29;20029;-93
2023/05/02 08:23:33;;;;;;;22.77;4.70;;;9.90;99.90;;;;;;4847724;29;20500;-93
2023/05/02 08:25:59;;;;;;;12.68;4.60;;;9.90;99.90;;;;;;4845338;29;20030;-94
2023/05/02 08:28:25;;;;;;;20.25;5.40;;;9.90;99.90;;;;;;4863649;29;20132;-95
2023/05/02 08:30:50;;;;;;;19.02;4.55;;;9.90;99.90;;;;;;4864199;29;20028;-95
2023/05/02 08:33:16;;;;;;;9.48;4.75;;;9.90;99.90;;;;;;4864510;29;20146;-93
2023/05/02 08:35:42;;;;;;;11.40;4.80;;;9.90;99.90;;;;;;4864588;29;20427;-93
2023/05/02 08:38:10;;;;;;;28.73;6.00;;;9.90;99.90;;;;;;4864480;29;20029;-94
2023/05/02 08:40:37;;;;;;;13.40;4.93;;;9.90;99.90;;;;;;4881103;29;20120;-94
2023/05/02 08:43:06;;;;;;;16.23;5.30;;;9.90;99.90;;;;;;4865194;29;20109;-94
2023/05/02 08:45:39;;;;;;;19.98;5.93;;;9.90;99.90;;;;;;4866791;29;20104;-95
2023/05/02 08:48:10;;;;;;;12.45;4.75;;;10.00;99.90;;;;;;4864126;29;20029;-93
2023/05/02 08:50:41;;;;;;;10.40;5.05;;;10.10;99.90;;;;;;4881219;29;20033;-94
2023/05/02 08:53:10;;;;;;;13.02;4.88;;;10.10;99.90;;;;;;4863880;29;20399;-94
2023/05/02 08:55:39;;;;;;;10.50;5.25;;;10.10;99.90;;;;;;4864961;29;20087;-94
2023/05/02 08:58:06;;;;;;;21.65;6.88;;;10.10;99.90;;;;;;4863986;29;20033;-94
2023/05/02 09:00:40;;;;;;;18.17;5.50;;;10.10;99.90;;;;;;4865779;29;20411;-93
2023/05/02 09:03:12;;;;;;;13.60;5.38;;;10.10;99.90;;;;;;4864194;29;20039;-93
2023/05/02 09:05:40;;;;;;;20.98;6.32;;;10.10;99.90;;;;;;4864087;29;20041;-95
2023/05/02 09:08:07;;;;;;;15.82;5.70;;;10.10;99.90;;;;;;4864055;29;20558;-93
2023/05/02 09:10:37;;;;;;;12.15;5.28;;;10.10;99.90;;;;;;4881639;29;20125;-96
2023/05/02 09:13:36;;;;;;;15.23;5.25;;;10.20;99.90;;;;;;4880594;29;20121;-94
2023/05/02 09:16:13;;;;;;;20.27;5.47;;;10.30;99.90;;;;;;4863924;29;20488;-95
2023/05/02 09:18:44;;;;;;;17.25;5.28;;;10.30;99.90;;;;;;4863532;29;20551;-94
2023/05/02 09:21:15;;;;;;;15.57;5.38;;;10.30;99.90;;;;;;4863851;29;20029;-93
2023/05/02 09:23:42;;;;;;;12.20;5.88;;;10.30;99.90;;;;;;4864564;29;20258;-93
2023/05/02 09:26:32;;;;;;;16.77;4.90;;;10.30;99.90;;;;;;4866287;29;20471;-94
2023/05/02 09:29:02;;;;;;;12.98;4.25;;;10.30;99.90;;;;;;4864116;29;20129;-91
2023/05/02 09:31:35;;;;;;;10.98;4.53;;;10.40;99.90;;;;;;4863598;29;20029;-91
2023/05/02 09:34:11;;;;;;;12.88;4.47;;;10.40;99.90;;;;;;4863793;29;20044;-95
2023/05/02 09:36:45;;;;;;;13.05;4.53;;;10.40;99.90;;;;;;4863529;29;20377;-94
2023/05/02 09:39:15;;;;;;;15.27;4.88;;;10.40;99.90;;;;;;4880565;29;20025;-95
2023/05/02 09:41:47;;;;;;;13.07;4.20;;;10.50;99.90;;;;;;4868636;29;20025;-95
2023/05/02 09:44:17;;;;;;;12.73;4.38;;;10.60;99.90;;;;;;4884845;29;20048;-94
2023/05/02 09:46:44;;;;;;;13.45;3.85;;;10.60;99.90;;;;;;4864956;29;20025;-95
2023/05/02 09:49:10;;;;;;;17.52;5.00;;;10.70;99.90;;;;;;4863774;29;20037;-92
2023/05/02 09:51:36;;;;;;;11.50;4.22;;;10.80;99.90;;;;;;4862983;29;20173;-92
2023/05/02 09:54:02;;;;;;;10.18;4.00;;;10.90;99.90;;;;;;4879931;29;20427;-93
2023/05/02 09:56:27;;;;;;;16.05;4.43;;;11.00;99.90;;;;;;4863140;29;20029;-94
2023/05/02 09:59:16;;;;;;;13.13;4.15;;;11.10;99.90;;;;;;4863629;29;20406;-93
2023/05/02 10:01:42;;;;;;;13.68;4.13;;;11.10;99.90;;;;;;4878321;29;20040;-93
2023/05/02 10:04:15;;;;;;;13.35;4.63;;;11.10;99.90;;;;;;4862970;29;20033;-94
2023/05/02 10:06:44;;;;;;;12.07;4.03;;;11.10;99.90;;;;;;4864315;29;20504;-93
2023/05/02 10:09:13;;;;;;;11.90;5.72;;;11.20;99.90;;;;;;4865335;29;20101;-93
2023/05/02 10:11:43;;;;;;;13.00;6.25;;;11.30;99.90;;;;;;4870276;29;20029;-91
2023/05/02 10:14:11;;;;;;;12.75;4.93;;;11.30;99.90;;;;;;4880287;29;20037;-92
2023/05/02 10:16:46;;;;;;;9.45;4.00;;;11.40;99.90;;;;;;4892981;29;20036;-94
2023/05/02 10:19:18;;;;;;;8.80;4.10;;;11.60;99.90;;;;;;4869871;29;20025;-94
2023/05/02 10:21:44;;;;;;;9.75;3.55;;;11.70;99.90;;;;;;4863114;29;20120;-94
2023/05/02 10:24:11;;;;;;;12.50;3.75;;;11.90;99.90;;;;;;4863758;29;20575;-96
2023/05/02 10:26:38;;;;;;;11.45;3.95;;;12.00;99.90;;;;;;4863002;29;20051;-95
2023/05/02 10:29:04;;;;;;;12.43;3.78;;;12.10;99.90;;;;;;4863045;29;20509;-94
2023/05/02 10:31:33;;;;;;;9.75;4.20;;;12.20;99.90;;;;;;4865219;29;20094;-93
2023/05/02 10:34:01;;;;;;;13.75;4.03;;;12.30;99.90;;;;;;4867327;29;20131;-95
2023/05/02 10:36:28;;;;;;;11.43;4.03;;;12.30;99.90;;;;;;4866410;29;20120;-93
2023/05/02 10:38:54;;;;;;;10.52;3.78;;;12.40;99.90;;;;;;4882432;29;20127;-94
2023/05/02 10:41:25;;;;;;;12.45;4.32;;;12.40;99.90;;;;;;4866066;29;20037;-95
2023/05/02 10:43:51;;;;;;;9.95;3.85;;;12.40;99.90;;;;;;4865238;29;20037;-95
2023/05/02 10:46:40;;;;;;;9.85;4.30;;;12.50;99.90;;;;;;4882381;29;20093;-95
2023/05/02 10:49:12;;;;;;;10.35;4.28;;;12.60;99.90;;;;;;4878991;29;20043;-93
2023/05/02 10:51:40;;;;;;;13.35;4.38;;;12.70;99.90;;;;;;4862759;29;20472;-94
2023/05/02 10:54:25;;;;;;;13.93;4.32;;;12.90;99.90;;;;;;4865430;29;20029;-94
2023/05/02 10:57:07;;;;;;;8.52;3.60;;;12.90;99.90;;;;;;4859331;29;20040;-94
2023/05/02 10:59:42;;;;;;;19.05;3.63;;;13.10;99.90;;;;;;4865601;29;20479;-95
2023/05/02 11:02:22;;;;;;;12.38;3.30;;;13.20;99.90;;;;;;4866128;29;20033;-94
2023/05/02 11:05:07;;;;;;;8.30;3.22;;;13.30;99.90;;;;;;4880370;29;20060;-93
2023/05/02 11:07:34;;;;;;;7.20;3.80;;;13.40;99.90;;;;;;4865590;29;20025;-95
2023/05/02 11:10:15;;;;;;;7.03;3.28;;;13.70;99.90;;;;;;4877630;29;20029;-94
2023/05/02 11:12:48;;;;;;;7.10;3.05;;;14.10;99.90;;;;;;4869626;29;20062;-94
2023/05/02 11:15:21;;;;;;;7.70;2.85;;;14.50;99.90;;;;;;4870133;29;20098;-95
2023/05/02 11:18:07;;;;;;;6.28;2.83;;;14.70;98.40;;;;;;4872559;29;20037;-95
2023/05/02 11:20:34;;;;;;;8.07;3.15;;;14.90;97.00;;;;;;4882895;29;20040;-93
2023/05/02 11:23:20;;;;;;;12.90;3.60;;;15.00;96.30;;;;;;4866131;29;20032;-93
2023/05/02 11:25:51;;;;;;;8.27;2.72;;;15.00;94.40;;;;;;4866028;29;20555;-94
2023/05/02 11:28:35;;;;;;;11.10;2.70;;;15.10;93.80;;;;;;4865998;29;20061;-93
2023/05/02 11:31:01;;;;;;;8.18;2.92;;;15.20;93.60;;;;;;4864961;29;20209;-94
2023/05/02 11:33:28;;;;;;;12.05;4.63;;;15.40;93.40;;;;;;4859139;29;20551;-96
2023/05/02 11:35:55;;;;;;;10.57;3.10;;;15.60;93.50;;;;;;4882338;29;20049;-88
2023/05/02 11:38:22;;;;;;;11.75;2.97;;;15.70;92.40;;;;;;4876271;29;20084;-90
2023/05/02 11:40:57;;;;;;;8.25;3.00;;;15.80;91.50;;;;;;4889232;29;20025;-89
2023/05/02 11:43:25;;;;;;;9.50;2.80;;;15.80;91.20;;;;;;4904903;29;20033;-89
2023/05/02 11:45:52;;;;;;;10.63;2.92;;;15.80;90.90;;;;;;4888833;29;20028;-90
2023/05/02 11:48:21;;;;;;;12.15;2.80;;;15.70;90.70;;;;;;4888902;29;20058;-90
2023/05/02 11:50:51;;;;;;;6.93;2.47;;;15.70;90.60;;;;;;4888831;29;20017;-89
2023/05/02 11:53:28;;;;;;;9.00;2.35;;;15.60;89.20;;;;;;4888963;29;20021;-89
2023/05/02 11:55:56;;;;;;;6.57;2.10;;;15.50;89.80;;;;;;4888927;29;20017;-90
2023/05/02 11:58:23;;;;;;;9.55;2.20;;;15.60;90.00;;;;;;4888820;29;20025;-90
2023/05/02 12:00:51;;;;;;;7.38;2.30;;;15.70;89.80;;;;;;4904822;29;20037;-89
2023/05/02 12:03:31;;;;;;;6.75;2.30;;;15.80;89.10;;;;;;4888628;29;20033;-91
2023/05/02 12:06:06;;;;;;;4.67;1.83;;;15.70;88.30;;;;;;4888739;29;20070;-89
2023/05/02 12:08:32;;;;;;;9.27;2.20;;;15.70;88.30;;;;;;4888555;29;20025;-90
2023/05/02 12:10:58;;;;;;;8.40;2.67;;;15.80;88.00;;;;;;4888356;29;20089;-88
2023/05/02 12:13:25;;;;;;;9.85;3.47;;;15.80;87.60;;;;;;4888359;29;20017;-89
2023/05/02 12:15:52;;;;;;;7.93;2.20;;;15.80;87.30;;;;;;4903582;29;20025;-89
2023/05/02 12:18:19;;;;;;;9.50;2.10;;;15.80;86.90;;;;;;4888165;29;20164;-91
2023/05/02 12:20:45;;;;;;;11.30;2.20;;;15.80;86.30;;;;;;4888155;29;20096;-90
2023/05/02 12:23:13;;;;;;;11.48;2.85;;;15.90;86.10;;;;;;4888069;29;20029;-90
2023/05/02 12:25:39;;;;;;;7.50;2.92;;;15.90;86.00;;;;;;4888140;29;20033;-93
2023/05/02 12:28:06;;;;;;;8.57;2.83;;;15.90;85.80;;;;;;4903451;29;20025;-93
2023/05/02 12:30:32;;;;;;;9.77;2.85;;;15.90;84.90;;;;;;4887777;29;20021;-89
2023/05/02 12:33:03;;;;;;;9.23;2.42;;;15.80;85.00;;;;;;4887647;29;20048;-91
2023/05/02 12:35:29;;;;;;;5.85;2.20;;;15.80;85.10;;;;;;4887893;29;20045;-88
2023/05/02 12:38:19;;;;;;;8.05;1.98;;;15.80;85.20;;;;;;4887852;29;20041;-91
2023/05/02 12:40:57;;;;;;;7.47;2.10;;;15.90;84.60;;;;;;4888007;29;20006;-91
2023/05/02 12:43:23;;;;;;;6.28;2.20;;;16.00;84.50;;;;;;4887773;29;20043;-90
2023/05/02 12:45:52;;;;;;;8.25;2.13;;;16.00;84.30;;;;;;4887755;29;20025;-90
2023/05/02 12:48:22;;;;;;;7.47;1.58;;;15.90;84.00;;;;;;4887516;29;20052;-92
2023/05/02 12:50:49;;;;;;;6.82;1.73;;;15.90;83.60;;;;;;4887863;29;20021;-90
2023/05/02 12:53:15;;;;;;;5.18;1.58;;;15.80;83.30;;;;;;4903936;29;20020;-91